Airfield :
LOGIN :

Register | Disclaimer

   EN    FR    IT 

 










Legend :    VFR   Marginal VFR   IFR   Intensive IFR   Very Intensive IFR
Visi :
Ceiling :
>= 8 km
>= 3000ft
5 to 8 km
1000 to 3000 ft
1500m to 5 km
500 to 1000 ft
800 to 1500m
200 to 500 ft
< 800m
< 200 ft
Symbols :   Thunderstorms  Fog  Heavy snow  Heavy precipitations  Wind > 20 kt
SIGMETs :     Misc.  Thunderstorms  Icing  Turbulence  Mountain Waves  Volcanic Ashes







- Airport Elevation : 215 ft
- IATA code : ABZ
- Download approach charts


EGPD - Aberdeen / Dyce

CURRENT METAR :
  • 181120Z VRB02KT 9999 SCT030 SCT042 00/M01 Q1013

EXPIRED METARs :
  • 181050Z VRB01KT 9999 FEW029 M01/M03 Q1013 NOSIG
  • 181020Z AUTO 01002KT 9999 NCD M02/M03 Q1013 NOSIG
  • 180950Z AUTO VRB02KT 9999 FEW041 M02/M03 Q1013 NOSIG
  • 180920Z AUTO 34001KT 9999 NCD M03/M04 Q1013
  • 180850Z AUTO VRB01KT 9999 NCD M03/M04 Q1013 NOSIG

TAF TAF EGPD
Valid from the 18 at 12:00 until the 19 at 12:00 UTC


181059Z 1812/1912 18006KT 9999 FEW030
TEMPO 1821/1912 BKN012
PROB30
TEMPO 1822/1901 6000 RADZ BKN008
No reported NOTAMs for that airfield.



MET'MAP, your aeronautical weather chart ! - Copyright ORBIFLY December 2007 - Disclaimer

ORBIFLY MET'MAP TEAM :

Programming & Development : Alexandra Zaïnal
Concept & Development : Baudouin d'Aumeries
Co-Development & Prog : Marc-Olivier Méhu
Technical & hardware support : Manuel Goepfert

Contact : metmap@orbifly.com




SOURCES & CREDITS :

   NOAA